createdAt,value
2023-01-31T00:01:49.210Z,3.06
2023-01-31T00:04:29.075Z,3.03
2023-01-31T00:07:08.936Z,2.98
2023-01-31T00:09:47.987Z,3.06
2023-01-31T00:12:28.198Z,3.00
2023-01-31T00:15:08.936Z,3.04
2023-01-31T00:17:48.542Z,3.05
2023-01-31T00:20:28.952Z,3.08
2023-01-31T00:23:07.845Z,3.11
2023-01-31T00:25:47.671Z,3.09
2023-01-31T00:28:50.926Z,3.13
2023-01-31T00:31:35.109Z,3.12
2023-01-31T00:34:14.888Z,3.12
2023-01-31T00:36:57.145Z,3.12
2023-01-31T00:39:37.014Z,3.12
2023-01-31T00:42:06.219Z,2.98
2023-01-31T00:44:37.155Z,3.15
2023-01-31T00:47:06.622Z,3.18
2023-01-31T00:49:35.462Z,3.16
2023-01-31T00:52:04.579Z,3.13
2023-01-31T00:54:33.244Z,3.09
2023-01-31T00:57:02.171Z,3.08
2023-01-31T00:59:31.415Z,3.08
2023-01-31T01:02:03.136Z,3.07
2023-01-31T01:04:31.957Z,3.05
2023-01-31T01:07:00.843Z,3.00
2023-01-31T01:09:29.657Z,2.99
2023-01-31T01:11:58.348Z,3.00
2023-01-31T01:14:27.427Z,3.01
2023-01-31T01:16:58.705Z,3.04
2023-01-31T01:19:28.982Z,3.01
2023-01-31T01:21:58.532Z,3.05
2023-01-31T01:24:28.316Z,3.04
2023-01-31T01:26:57.431Z,3.04
2023-01-31T01:29:27.332Z,3.08
2023-01-31T01:31:56.188Z,3.08
2023-01-31T01:34:24.954Z,3.10
2023-01-31T01:36:55.664Z,3.15
2023-01-31T01:39:24.714Z,3.11
2023-01-31T01:41:53.729Z,3.08
2023-01-31T01:44:43.172Z,3.06
2023-01-31T01:47:18.192Z,3.03
2023-01-31T01:49:51.288Z,3.06
2023-01-31T01:52:23.281Z,3.06
2023-01-31T01:54:57.528Z,3.04
2023-01-31T01:57:31.296Z,3.01
2023-01-31T02:00:06.437Z,3.02
2023-01-31T02:02:45.680Z,3.01
2023-01-31T02:05:18.630Z,2.99
2023-01-31T02:07:49.156Z,3.01
2023-01-31T02:10:25.274Z,3.00
2023-01-31T02:12:55.006Z,2.98
2023-01-31T02:15:24.741Z,2.95
2023-01-31T02:17:55.626Z,2.98
2023-01-31T02:20:35.241Z,2.94
2023-01-31T02:23:16.082Z,2.90
2023-01-31T02:26:10.055Z,2.82
2023-01-31T02:29:03.195Z,2.83
2023-01-31T02:32:00.622Z,2.79
2023-01-31T02:34:40.143Z,2.79
2023-01-31T02:37:24.355Z,2.72
2023-01-31T02:40:03.879Z,2.70
2023-01-31T02:42:36.805Z,2.71
2023-01-31T02:45:13.296Z,2.67
2023-01-31T02:47:55.366Z,2.67
2023-01-31T02:50:32.373Z,2.64
2023-01-31T02:53:08.019Z,2.66
2023-01-31T02:55:52.645Z,2.68
2023-01-31T02:58:26.554Z,2.68
2023-01-31T03:00:59.710Z,2.71
2023-01-31T03:03:32.239Z,2.73
2023-01-31T03:06:29.404Z,2.75
2023-01-31T03:09:06.088Z,2.63
2023-01-31T03:11:43.822Z,2.82
2023-01-31T03:14:27.768Z,2.82
2023-01-31T03:17:16.095Z,2.83
2023-01-31T03:19:55.877Z,2.86
2023-01-31T03:22:29.661Z,2.84
2023-01-31T03:25:01.230Z,2.66
2023-01-31T03:27:31.877Z,2.81
2023-01-31T03:30:06.747Z,2.77
2023-01-31T03:32:41.264Z,2.77
2023-01-31T03:35:10.980Z,2.74
2023-01-31T03:37:46.443Z,2.72
2023-01-31T03:40:27.813Z,2.67
2023-01-31T03:43:04.071Z,2.66
2023-01-31T03:45:40.038Z,2.64
2023-01-31T03:48:14.524Z,2.61
2023-01-31T03:50:51.204Z,2.57
2023-01-31T03:53:26.904Z,2.52
2023-01-31T03:56:01.465Z,2.45
2023-01-31T03:58:37.953Z,2.40
2023-01-31T04:01:09.434Z,2.35
2023-01-31T04:03:43.350Z,2.25
2023-01-31T04:06:13.372Z,2.24
2023-01-31T04:08:43.735Z,2.23
2023-01-31T04:11:16.620Z,2.27
2023-01-31T04:13:45.472Z,2.29
2023-01-31T04:16:14.668Z,2.34
2023-01-31T04:18:43.534Z,2.33
2023-01-31T04:21:12.240Z,2.32
2023-01-31T04:23:41.012Z,2.31
2023-01-31T04:26:10.011Z,2.31
2023-01-31T04:28:40.241Z,2.28
2023-01-31T04:31:09.669Z,2.29
2023-01-31T04:33:38.384Z,2.29
2023-01-31T04:36:08.266Z,2.31
2023-01-31T04:38:37.091Z,2.32
2023-01-31T04:41:06.298Z,2.34
2023-01-31T04:43:35.066Z,2.35
2023-01-31T04:46:05.436Z,2.21
2023-01-31T04:48:34.350Z,2.40
2023-01-31T04:51:03.020Z,2.42
2023-01-31T04:53:31.827Z,2.41
2023-01-31T04:56:00.992Z,2.46
2023-01-31T04:58:29.773Z,2.46
2023-01-31T05:00:58.775Z,2.48
2023-01-31T05:03:29.136Z,2.53
2023-01-31T05:05:58.113Z,2.52
2023-01-31T05:08:27.023Z,2.52
2023-01-31T05:11:00.774Z,2.52
2023-01-31T05:13:32.988Z,2.49
2023-01-31T05:16:02.172Z,2.52
2023-01-31T05:18:32.729Z,2.58
2023-01-31T05:21:01.525Z,2.60
2023-01-31T05:23:31.361Z,2.59
2023-01-31T05:26:00.395Z,2.54
2023-01-31T05:28:29.198Z,2.62
2023-01-31T05:31:05.117Z,2.61
2023-01-31T05:33:36.232Z,2.64
2023-01-31T05:36:06.049Z,2.67
2023-01-31T05:38:34.894Z,2.66
2023-01-31T05:41:03.588Z,2.67
2023-01-31T05:43:32.580Z,2.66
2023-01-31T05:46:01.516Z,2.67
2023-01-31T05:48:30.311Z,2.62
2023-01-31T05:51:00.822Z,2.59
2023-01-31T05:53:29.626Z,2.58
2023-01-31T05:55:58.333Z,2.54
2023-01-31T05:58:27.153Z,2.50
2023-01-31T06:00:57.836Z,2.45
2023-01-31T06:03:26.763Z,2.50
2023-01-31T06:05:55.763Z,2.46
2023-01-31T06:08:26.262Z,2.46
2023-01-31T06:10:55.172Z,2.37
2023-01-31T06:13:23.964Z,2.42
2023-01-31T06:15:52.892Z,2.42
2023-01-31T06:18:21.995Z,2.41
2023-01-31T06:20:50.763Z,2.39
2023-01-31T06:23:19.462Z,2.42
2023-01-31T06:25:52.304Z,2.44
2023-01-31T06:28:21.294Z,2.43
2023-01-31T06:30:50.462Z,2.40
2023-01-31T06:33:19.457Z,2.41
2023-01-31T06:35:48.214Z,2.40
2023-01-31T06:38:17.108Z,2.37
2023-01-31T06:40:45.834Z,2.35
2023-01-31T06:43:16.059Z,2.43
2023-01-31T06:45:45.618Z,2.48
2023-01-31T06:48:14.436Z,2.50
2023-01-31T06:50:43.288Z,2.54
2023-01-31T06:53:12.016Z,2.58
2023-01-31T06:55:41.304Z,2.62
2023-01-31T06:58:10.008Z,2.70
2023-01-31T07:00:40.116Z,2.71
2023-01-31T07:03:08.935Z,2.71
2023-01-31T07:05:37.644Z,2.72
2023-01-31T07:08:06.878Z,2.76
2023-01-31T07:10:35.846Z,2.91
2023-01-31T07:13:04.936Z,3.04
2023-01-31T07:15:33.701Z,3.14
2023-01-31T07:18:03.892Z,3.15
2023-01-31T07:20:32.867Z,3.19
2023-01-31T07:23:01.861Z,3.22
2023-01-31T07:25:32.713Z,3.25
2023-01-31T07:28:01.612Z,3.23
2023-01-31T07:30:30.870Z,3.21
2023-01-31T07:33:00.239Z,3.19
2023-01-31T07:35:31.076Z,3.25
2023-01-31T07:38:00.553Z,3.29
2023-01-31T07:40:29.807Z,3.29
2023-01-31T07:42:59.630Z,3.30
2023-01-31T07:45:28.877Z,3.34
2023-01-31T07:48:00.204Z,3.34
2023-01-31T07:50:30.818Z,3.34
2023-01-31T07:53:00.041Z,3.34
2023-01-31T07:55:28.751Z,3.32
2023-01-31T07:57:57.499Z,3.32
2023-01-31T08:00:36.035Z,3.30
2023-01-31T08:03:14.944Z,3.31
2023-01-31T08:05:47.797Z,3.30
2023-01-31T08:08:17.207Z,3.35
2023-01-31T08:10:47.560Z,3.36
2023-01-31T08:13:16.220Z,3.34
2023-01-31T08:15:45.394Z,3.32
2023-01-31T08:18:14.257Z,3.29
2023-01-31T08:20:45.070Z,3.39
2023-01-31T08:23:14.276Z,3.62
2023-01-31T08:25:42.867Z,3.82
2023-01-31T08:28:12.349Z,4.05
2023-01-31T08:30:42.613Z,4.25
2023-01-31T08:33:12.976Z,4.39
2023-01-31T08:35:41.774Z,4.55
2023-01-31T08:38:16.638Z,4.74
2023-01-31T08:40:46.310Z,4.88
2023-01-31T08:43:15.606Z,4.97
2023-01-31T08:45:44.733Z,5.05
2023-01-31T08:48:13.501Z,5.13
2023-01-31T08:50:42.352Z,5.28
2023-01-31T08:53:12.461Z,5.29
2023-01-31T08:55:41.241Z,5.08
2023-01-31T08:58:09.962Z,5.02
2023-01-31T09:00:38.742Z,5.11
2023-01-31T09:03:07.570Z,5.23
2023-01-31T09:05:36.373Z,5.34
2023-01-31T09:08:05.167Z,5.43
2023-01-31T09:10:35.431Z,5.55
2023-01-31T09:13:04.315Z,5.61
2023-01-31T09:15:33.001Z,5.49
2023-01-31T09:18:02.274Z,5.69
2023-01-31T09:20:31.065Z,5.75
2023-01-31T09:22:59.870Z,5.85
2023-01-31T09:25:43.026Z,6.00
2023-01-31T09:28:17.149Z,6.17
2023-01-31T09:30:45.894Z,6.22
2023-01-31T09:33:14.649Z,6.26
2023-01-31T09:35:43.393Z,6.18
2023-01-31T09:38:12.945Z,6.12
2023-01-31T09:40:42.100Z,6.12
2023-01-31T09:43:14.090Z,6.19
2023-01-31T09:45:47.847Z,6.30
2023-01-31T09:48:20.839Z,6.35
2023-01-31T09:50:56.140Z,6.37
2023-01-31T09:53:31.135Z,6.31
2023-01-31T09:56:15.647Z,6.34
2023-01-31T09:58:56.177Z,6.55
2023-01-31T10:01:31.862Z,6.68
2023-01-31T10:04:21.736Z,6.77
2023-01-31T10:06:58.706Z,6.89
2023-01-31T10:09:33.377Z,6.89
2023-01-31T10:12:11.151Z,7.03
2023-01-31T10:14:50.481Z,7.09
2023-01-31T10:17:24.933Z,7.14
2023-01-31T10:19:57.683Z,7.21
2023-01-31T10:22:39.316Z,7.36
2023-01-31T10:25:22.279Z,7.50
2023-01-31T10:27:53.409Z,7.53
2023-01-31T10:30:26.870Z,7.47
2023-01-31T10:33:03.615Z,7.32
2023-01-31T10:35:41.288Z,7.68
2023-01-31T10:38:19.435Z,7.48
2023-01-31T10:40:56.869Z,7.28
2023-01-31T10:43:36.071Z,7.13
2023-01-31T10:46:12.186Z,6.93
2023-01-31T10:48:47.718Z,6.80
2023-01-31T10:51:31.995Z,6.65
2023-01-31T10:54:22.574Z,6.44
2023-01-31T10:56:51.482Z,6.35
2023-01-31T10:59:25.559Z,6.20
2023-01-31T11:01:54.676Z,6.09
2023-01-31T11:04:33.447Z,5.94
2023-01-31T11:07:03.920Z,5.81
2023-01-31T11:09:36.193Z,5.65
2023-01-31T11:12:07.665Z,5.50
2023-01-31T11:14:36.965Z,5.45
2023-01-31T11:17:09.809Z,5.33
2023-01-31T11:19:46.766Z,5.25
2023-01-31T11:22:25.839Z,5.30
2023-01-31T11:24:55.252Z,5.34
2023-01-31T11:27:31.096Z,5.40
2023-01-31T11:30:01.783Z,5.41
2023-01-31T11:32:34.427Z,5.56
2023-01-31T11:35:07.121Z,5.87
2023-01-31T11:37:36.125Z,6.25
2023-01-31T11:40:23.036Z,6.34
2023-01-31T11:42:56.640Z,6.60
2023-01-31T11:45:29.025Z,6.76
2023-01-31T11:48:00.975Z,6.95
2023-01-31T11:50:38.107Z,7.13
2023-01-31T11:53:19.600Z,6.96
2023-01-31T11:55:50.840Z,6.80
2023-01-31T11:58:22.801Z,6.56
2023-01-31T12:00:56.584Z,6.40
2023-01-31T12:07:03.906Z,6.32
2023-01-31T12:09:43.961Z,6.30
2023-01-31T12:12:31.582Z,6.25
2023-01-31T12:15:05.031Z,6.51
2023-01-31T12:17:43.327Z,6.62
2023-01-31T12:20:28.560Z,6.69
2023-01-31T12:23:10.029Z,6.66
2023-01-31T12:25:53.969Z,6.64
2023-01-31T12:28:42.842Z,6.55
2023-01-31T12:31:39.018Z,6.42
2023-01-31T12:34:29.373Z,6.43
2023-01-31T12:37:13.841Z,6.41
2023-01-31T12:40:22.875Z,6.45
2023-01-31T12:42:59.729Z,6.44
2023-01-31T12:45:51.063Z,6.47
2023-01-31T12:48:41.441Z,6.49
2023-01-31T12:51:28.704Z,6.42
2023-01-31T12:54:04.917Z,6.27
2023-01-31T12:56:48.428Z,6.04
2023-01-31T12:59:35.551Z,5.92
2023-01-31T13:02:19.877Z,5.80
2023-01-31T13:04:54.518Z,5.69
2023-01-31T13:07:31.946Z,5.58
2023-01-31T13:10:05.035Z,5.43
2023-01-31T13:12:40.401Z,5.36
2023-01-31T13:15:29.667Z,5.37
2023-01-31T13:18:03.725Z,5.35
2023-01-31T13:20:37.988Z,5.34
2023-01-31T13:23:14.698Z,5.32
2023-01-31T13:25:51.539Z,5.30
2023-01-31T13:28:26.149Z,5.20
2023-01-31T13:30:58.900Z,5.18
2023-01-31T13:33:37.153Z,5.19
2023-01-31T13:36:20.999Z,5.10
2023-01-31T13:38:50.757Z,5.04
2023-01-31T13:41:22.379Z,4.93
2023-01-31T13:43:53.379Z,4.82
2023-01-31T13:46:28.738Z,4.75
2023-01-31T13:49:01.631Z,4.69
2023-01-31T13:51:36.126Z,4.70
2023-01-31T13:54:09.994Z,4.51
2023-01-31T13:56:42.300Z,4.67
2023-01-31T13:59:12.906Z,4.69
2023-01-31T14:01:49.541Z,4.63
2023-01-31T14:04:24.797Z,4.57
2023-01-31T14:06:59.372Z,4.61
2023-01-31T14:09:30.269Z,4.55
2023-01-31T14:12:00.579Z,4.37
2023-01-31T14:14:42.035Z,4.47
2023-01-31T14:17:13.867Z,4.39
2023-01-31T14:20:06.004Z,4.46
2023-01-31T14:22:36.404Z,4.45
2023-01-31T14:25:15.189Z,4.47
2023-01-31T14:28:03.794Z,4.45
2023-01-31T14:30:42.029Z,4.42
2023-01-31T14:33:24.613Z,4.45
2023-01-31T14:36:21.958Z,4.47
2023-01-31T14:39:11.093Z,4.43
2023-01-31T14:42:02.907Z,4.32
2023-01-31T14:44:43.484Z,4.37
2023-01-31T14:47:30.152Z,4.35
2023-01-31T14:50:19.621Z,4.30
2023-01-31T14:53:03.481Z,4.31
2023-01-31T14:55:49.117Z,4.31
2023-01-31T14:58:22.291Z,4.30
2023-01-31T15:00:54.694Z,4.28
2023-01-31T15:03:28.000Z,4.26
2023-01-31T15:06:08.380Z,4.23
2023-01-31T15:08:43.574Z,4.06
2023-01-31T15:11:43.099Z,4.20
2023-01-31T15:14:35.588Z,4.24
2023-01-31T15:17:23.680Z,4.21
2023-01-31T15:20:15.201Z,4.20
2023-01-31T15:22:45.898Z,4.23
2023-01-31T15:25:25.826Z,4.22
2023-01-31T15:27:58.288Z,4.24
2023-01-31T15:30:31.075Z,4.23
2023-01-31T15:33:05.041Z,4.23
2023-01-31T15:35:37.459Z,4.04
2023-01-31T15:38:13.719Z,4.06
2023-01-31T15:40:42.583Z,4.14
2023-01-31T15:43:20.276Z,4.15
2023-01-31T15:45:53.122Z,4.12
2023-01-31T15:48:23.351Z,4.08
2023-01-31T15:50:56.618Z,4.17
2023-01-31T15:53:27.617Z,4.08
2023-01-31T15:56:00.527Z,4.08
2023-01-31T15:58:32.725Z,4.11
2023-01-31T16:01:04.281Z,4.13
2023-01-31T16:03:36.430Z,4.10
2023-01-31T16:06:08.816Z,4.04
2023-01-31T16:08:40.070Z,4.05
2023-01-31T16:11:11.481Z,4.01
2023-01-31T16:13:44.395Z,4.06
2023-01-31T16:16:14.567Z,4.05
2023-01-31T16:18:46.992Z,4.03
2023-01-31T16:21:24.146Z,4.04
2023-01-31T16:24:00.758Z,4.05
2023-01-31T16:26:34.040Z,4.06
2023-01-31T16:29:11.069Z,4.06
2023-01-31T16:31:48.414Z,4.10
2023-01-31T16:34:25.779Z,4.08
2023-01-31T16:36:59.960Z,4.01
2023-01-31T16:39:38.982Z,3.99
2023-01-31T16:42:11.124Z,4.00
2023-01-31T16:44:45.777Z,4.02
2023-01-31T16:47:32.676Z,4.05
2023-01-31T16:50:42.961Z,4.03
2023-01-31T16:53:26.606Z,4.03
2023-01-31T16:56:17.025Z,4.06
2023-01-31T16:58:50.995Z,4.05
2023-01-31T17:01:23.215Z,4.06
2023-01-31T17:04:05.103Z,4.09
2023-01-31T17:06:35.331Z,4.08
2023-01-31T17:09:05.643Z,4.09
2023-01-31T17:11:42.611Z,4.10
2023-01-31T17:14:13.047Z,4.09
2023-01-31T17:16:43.176Z,4.09
2023-01-31T17:19:14.269Z,4.11
2023-01-31T17:21:44.132Z,4.11
2023-01-31T17:24:15.292Z,4.13
2023-01-31T17:26:44.095Z,4.15
2023-01-31T17:29:13.004Z,4.15
2023-01-31T17:31:43.398Z,4.15
2023-01-31T17:34:14.865Z,4.16
2023-01-31T17:36:44.464Z,4.14
2023-01-31T17:39:13.275Z,4.10
2023-01-31T17:41:42.465Z,4.05
2023-01-31T17:44:15.448Z,4.04
2023-01-31T17:46:45.736Z,4.03
2023-01-31T17:49:15.510Z,4.07
2023-01-31T17:51:45.877Z,4.08
2023-01-31T17:54:14.833Z,4.13
2023-01-31T17:56:43.555Z,4.18
2023-01-31T17:59:18.456Z,4.18
2023-01-31T18:01:52.269Z,4.19
2023-01-31T18:04:21.205Z,4.18
2023-01-31T18:06:50.070Z,4.19
2023-01-31T18:09:20.445Z,4.16
2023-01-31T18:11:49.343Z,4.14
2023-01-31T18:14:18.063Z,4.06
2023-01-31T18:16:46.902Z,4.04
2023-01-31T18:19:17.053Z,3.99
2023-01-31T18:21:54.338Z,3.97
2023-01-31T18:24:23.593Z,3.92
2023-01-31T18:26:52.498Z,3.87
2023-01-31T18:29:23.345Z,3.83
2023-01-31T18:31:55.704Z,3.80
2023-01-31T18:34:25.959Z,3.75
2023-01-31T18:36:54.711Z,3.74
2023-01-31T18:39:23.752Z,3.72
2023-01-31T18:41:53.224Z,3.68
2023-01-31T18:44:22.497Z,3.66
2023-01-31T18:46:51.242Z,3.60
2023-01-31T18:49:20.287Z,3.59
2023-01-31T18:51:50.893Z,3.59
2023-01-31T18:54:19.825Z,3.55
2023-01-31T18:56:48.513Z,3.55
2023-01-31T18:59:17.294Z,3.53
2023-01-31T19:01:46.054Z,3.51
2023-01-31T19:04:14.940Z,3.52
2023-01-31T19:06:45.235Z,3.47
2023-01-31T19:09:16.378Z,3.44
2023-01-31T19:11:46.029Z,3.45
2023-01-31T19:14:14.919Z,3.39
2023-01-31T19:16:45.171Z,3.36
2023-01-31T19:19:14.222Z,3.29
2023-01-31T19:21:43.140Z,3.28
2023-01-31T19:24:15.613Z,3.13
2023-01-31T19:26:45.963Z,3.15
2023-01-31T19:29:16.902Z,3.10
2023-01-31T19:31:46.219Z,3.07
2023-01-31T19:34:15.190Z,3.08
2023-01-31T19:36:46.802Z,3.04
2023-01-31T19:39:15.740Z,3.05
2023-01-31T19:41:45.844Z,3.03
2023-01-31T19:44:14.683Z,2.99
2023-01-31T19:46:44.179Z,2.94
2023-01-31T19:49:13.150Z,2.93
2023-01-31T19:51:42.626Z,2.89
2023-01-31T19:54:15.477Z,2.91
2023-01-31T19:56:45.888Z,2.90
2023-01-31T19:59:14.684Z,2.88
2023-01-31T20:01:43.362Z,2.86
2023-01-31T20:04:12.173Z,2.83
2023-01-31T20:06:40.916Z,2.81
2023-01-31T20:09:16.460Z,2.79
2023-01-31T20:11:47.116Z,2.79
2023-01-31T20:14:15.875Z,2.80
2023-01-31T20:16:44.713Z,2.76
2023-01-31T20:19:13.487Z,2.73
2023-01-31T20:21:42.205Z,2.72
2023-01-31T20:24:11.545Z,2.72
2023-01-31T20:26:40.414Z,2.70
2023-01-31T20:29:10.784Z,2.69
2023-01-31T20:31:39.974Z,2.66
2023-01-31T20:34:08.740Z,2.70
2023-01-31T20:36:37.527Z,2.69
2023-01-31T20:39:06.551Z,2.67
2023-01-31T20:41:35.878Z,2.66
2023-01-31T20:44:06.098Z,2.66
2023-01-31T20:46:36.255Z,2.63
2023-01-31T20:49:05.019Z,2.63
2023-01-31T20:51:33.645Z,2.63
2023-01-31T20:54:04.178Z,2.65
2023-01-31T20:56:32.841Z,2.67
2023-01-31T20:59:01.566Z,2.67
2023-01-31T21:01:30.307Z,2.72
2023-01-31T21:04:00.565Z,2.76
2023-01-31T21:06:29.949Z,2.77
2023-01-31T21:08:58.619Z,2.80
2023-01-31T21:11:27.269Z,2.80
2023-01-31T21:13:56.006Z,2.80
2023-01-31T21:16:24.812Z,2.82
2023-01-31T21:18:53.606Z,2.78
2023-01-31T21:21:24.425Z,2.79
2023-01-31T21:23:55.779Z,2.79
2023-01-31T21:26:26.760Z,2.81
2023-01-31T21:28:56.159Z,2.78
2023-01-31T21:31:25.202Z,2.80
2023-01-31T21:33:54.200Z,2.78
2023-01-31T21:36:27.014Z,2.82
2023-01-31T21:38:55.836Z,2.85
2023-01-31T21:41:34.492Z,2.88
2023-01-31T21:44:03.821Z,2.90
2023-01-31T21:46:32.516Z,2.95
2023-01-31T21:49:01.882Z,2.94
2023-01-31T21:51:31.929Z,2.96
2023-01-31T21:54:00.665Z,2.98
2023-01-31T21:56:29.921Z,3.00
2023-01-31T21:58:58.933Z,2.99
2023-01-31T22:01:29.882Z,2.97
2023-01-31T22:03:59.348Z,2.92
2023-01-31T22:06:31.713Z,2.97
2023-01-31T22:09:03.244Z,2.95
2023-01-31T22:11:33.476Z,2.95
2023-01-31T22:14:04.491Z,2.96
2023-01-31T22:16:33.228Z,2.99
2023-01-31T22:19:02.164Z,3.03
2023-01-31T22:21:32.808Z,3.03
2023-01-31T22:24:04.148Z,3.06
2023-01-31T22:26:35.348Z,3.07
2023-01-31T22:29:06.620Z,3.06
2023-01-31T22:31:35.545Z,3.03
2023-01-31T22:34:04.763Z,3.05
2023-01-31T22:36:34.374Z,3.14
2023-01-31T22:39:04.919Z,3.01
2023-01-31T22:41:33.775Z,3.17
2023-01-31T22:44:02.488Z,3.21
2023-01-31T22:46:31.425Z,3.28
2023-01-31T22:49:00.138Z,3.32
2023-01-31T22:51:30.478Z,3.39
2023-01-31T22:53:59.799Z,3.42
2023-01-31T22:56:31.562Z,3.45
2023-01-31T22:59:02.259Z,3.43
2023-01-31T23:01:33.068Z,3.47
2023-01-31T23:04:04.076Z,3.46
2023-01-31T23:06:32.969Z,3.50
2023-01-31T23:09:01.611Z,3.51
2023-01-31T23:11:31.813Z,3.53
2023-01-31T23:14:00.876Z,3.58
2023-01-31T23:16:43.922Z,3.55
2023-01-31T23:19:13.789Z,3.51
2023-01-31T23:21:44.556Z,3.55
2023-01-31T23:24:15.358Z,3.57
2023-01-31T23:26:45.563Z,3.55
2023-01-31T23:29:14.820Z,3.56
2023-01-31T23:31:43.785Z,3.59
2023-01-31T23:34:12.553Z,3.57
2023-01-31T23:36:41.352Z,3.58
2023-01-31T23:39:11.190Z,3.61
2023-01-31T23:41:39.930Z,3.66
2023-01-31T23:44:10.193Z,3.66
2023-01-31T23:46:39.048Z,3.65
2023-01-31T23:49:08.143Z,3.67
2023-01-31T23:51:36.930Z,3.68
2023-01-31T23:54:06.250Z,3.70
2023-01-31T23:56:34.998Z,3.75
2023-01-31T23:59:05.021Z,3.73
